Time;durP1;ratioP1;P1;durP2;ratioP2;P2;SDS_P1;SDS_P2;PMS_P1;PMS_P2;Temp;Humidity;BMP_temperature;BMP_pressure;BME280_temperature;BME280_humidity;BME280_pressure;Samples;Min_cycle;Max_cycle;Signal;HPM_P1;HPM_P2
2023/07/18 00:01:17;;;;;;;0.65;0.57;;;13.60;99.90;;;;;;5093281;28;20044;-64
2023/07/18 00:03:42;;;;;;;;;;;13.40;99.90;;;;;;5093670;28;20056;-64
2023/07/18 00:06:08;;;;;;;0.60;0.52;;;13.60;99.90;;;;;;5093301;28;20371;-65
2023/07/18 00:08:34;;;;;;;0.45;0.43;;;13.70;99.90;;;;;;5093158;28;20182;-64
2023/07/18 00:11:00;;;;;;;0.40;0.40;;;13.60;99.90;;;;;;5092925;28;20040;-65
2023/07/18 00:13:26;;;;;;;1.30;1.30;;;13.60;99.90;;;;;;5080294;28;20044;-64
2023/07/18 00:15:52;;;;;;;0.85;0.82;;;13.80;99.90;;;;;;5072445;28;20045;-63
2023/07/18 00:18:21;;;;;;;0.40;0.30;;;13.40;99.90;;;;;;5072421;28;20119;-64
2023/07/18 00:20:47;;;;;;;0.40;0.40;;;13.60;99.90;;;;;;5072727;28;20070;-63
2023/07/18 00:23:12;;;;;;;0.52;0.40;;;13.40;99.90;;;;;;5072615;28;20049;-63
2023/07/18 00:25:38;;;;;;;0.38;0.38;;;13.80;99.90;;;;;;5072521;28;20083;-64
2023/07/18 00:28:04;;;;;;;;;;;13.20;99.90;;;;;;5072934;28;20057;-64
2023/07/18 00:30:30;;;;;;;1.40;0.35;;;13.40;99.90;;;;;;5072232;28;19950;-63
2023/07/18 00:32:59;;;;;;;;;;;13.60;99.90;;;;;;5072667;28;20443;-63
2023/07/18 00:35:26;;;;;;;0.20;0.20;;;13.20;99.90;;;;;;5072489;28;20470;-64
2023/07/18 00:37:52;;;;;;;0.22;0.22;;;13.20;99.90;;;;;;5072397;28;20063;-63
2023/07/18 00:40:18;;;;;;;0.85;0.57;;;13.30;99.90;;;;;;5072375;28;20044;-63
2023/07/18 00:42:47;;;;;;;1.05;0.68;;;13.30;99.90;;;;;;5072259;28;20123;-63
2023/07/18 00:45:13;;;;;;;0.38;0.38;;;13.40;99.90;;;;;;5072456;28;20045;-63
2023/07/18 00:47:42;;;;;;;0.50;0.50;;;13.40;99.90;;;;;;5070844;28;20468;-63
2023/07/18 00:50:14;;;;;;;0.40;0.40;;;13.20;99.90;;;;;;5072048;28;20046;-64
2023/07/18 00:52:44;;;;;;;0.30;0.30;;;13.20;99.90;;;;;;5071959;28;20040;-64
2023/07/18 00:55:11;;;;;;;0.30;0.30;;;13.40;99.90;;;;;;5071877;28;20045;-63
2023/07/18 00:57:42;;;;;;;0.20;0.20;;;12.90;99.90;;;;;;5071908;28;20075;-64
2023/07/18 01:00:11;;;;;;;0.38;0.38;;;13.10;99.90;;;;;;5071794;28;20110;-63
2023/07/18 01:02:41;;;;;;;0.93;0.85;;;13.00;99.90;;;;;;5071521;28;20043;-65
2023/07/18 01:05:08;;;;;;;0.55;0.40;;;13.20;99.90;;;;;;5070427;28;20132;-64
2023/07/18 01:07:35;;;;;;;0.50;0.50;;;13.20;99.90;;;;;;5071528;28;20118;-64
2023/07/18 01:10:33;;;;;;;0.47;0.47;;;13.00;99.90;;;;;;5071732;28;20114;-64
2023/07/18 01:13:00;;;;;;;0.65;0.65;;;12.90;99.90;;;;;;5069813;28;20087;-63
2023/07/18 01:15:33;;;;;;;0.22;0.22;;;13.10;99.90;;;;;;5071437;28;20098;-64
2023/07/18 01:18:05;;;;;;;0.50;0.50;;;12.80;99.90;;;;;;5071497;28;20087;-63
2023/07/18 01:20:33;;;;;;;0.73;0.50;;;13.20;99.90;;;;;;5071519;28;20404;-64
2023/07/18 01:23:00;;;;;;;0.30;0.30;;;13.00;99.90;;;;;;5071441;28;20044;-64
2023/07/18 01:25:26;;;;;;;0.25;0.25;;;13.00;99.90;;;;;;5071270;28;20052;-64
2023/07/18 01:27:53;;;;;;;;;;;13.10;99.90;;;;;;5071225;28;20104;-64
2023/07/18 01:30:20;;;;;;;;;;;13.00;99.90;;;;;;5071348;28;20011;-63
2023/07/18 01:32:49;;;;;;;0.30;0.30;;;13.10;99.90;;;;;;5071102;28;19924;-64
2023/07/18 01:35:19;;;;;;;0.60;0.60;;;13.30;99.90;;;;;;5069970;28;20052;-63
2023/07/18 01:37:45;;;;;;;0.30;0.30;;;13.30;99.90;;;;;;5071075;28;20051;-63
2023/07/18 01:40:15;;;;;;;0.20;0.20;;;13.10;99.90;;;;;;5069829;28;20048;-63
2023/07/18 01:42:42;;;;;;;0.20;0.20;;;12.90;99.90;;;;;;5070971;28;20080;-64
2023/07/18 01:45:09;;;;;;;0.47;0.47;;;12.90;99.90;;;;;;5069584;28;20056;-63
2023/07/18 01:47:36;;;;;;;0.35;0.32;;;12.80;99.90;;;;;;5070731;28;20512;-63
2023/07/18 01:50:04;;;;;;;0.20;0.20;;;13.10;99.90;;;;;;5070831;28;20569;-63
2023/07/18 01:52:34;;;;;;;0.30;0.30;;;12.60;99.90;;;;;;5070958;28;20105;-63
2023/07/18 01:55:00;;;;;;;0.60;0.40;;;13.20;99.90;;;;;;5070820;28;20056;-64
2023/07/18 01:57:41;;;;;;;0.30;0.25;;;12.60;99.90;;;;;;5070718;28;20165;-64
2023/07/18 02:00:12;;;;;;;0.40;0.40;;;12.70;99.90;;;;;;5070771;28;20045;-63
2023/07/18 02:02:41;;;;;;;0.20;0.20;;;12.80;99.90;;;;;;5070717;28;20519;-63
2023/07/18 02:05:08;;;;;;;0.30;0.30;;;13.00;99.90;;;;;;5070910;28;20064;-63
2023/07/18 02:07:34;;;;;;;0.52;0.52;;;12.90;99.90;;;;;;5070827;28;20090;-63
2023/07/18 02:10:00;;;;;;;0.20;0.20;;;13.20;99.90;;;;;;5070702;28;20048;-64
2023/07/18 02:12:26;;;;;;;;;;;12.60;99.90;;;;;;5072811;28;20083;-64
2023/07/18 02:14:52;;;;;;;0.30;0.30;;;12.70;99.90;;;;;;5091006;28;20040;-63
2023/07/18 02:17:18;;;;;;;0.55;0.55;;;12.70;99.90;;;;;;5090963;28;20432;-63
2023/07/18 02:19:44;;;;;;;;;;;13.70;99.90;;;;;;5091345;28;20093;-62
2023/07/18 02:22:09;;;;;;;0.68;0.35;;;12.70;99.90;;;;;;5090992;28;20433;-63
2023/07/18 02:24:35;;;;;;;0.57;0.57;;;12.70;99.90;;;;;;5091070;28;20040;-63
2023/07/18 02:27:01;;;;;;;0.50;0.50;;;13.00;99.90;;;;;;5090938;28;20098;-64
2023/07/18 02:29:27;;;;;;;0.30;0.30;;;12.80;99.90;;;;;;5090942;28;20077;-65
2023/07/18 02:31:53;;;;;;;0.25;0.25;;;12.90;99.90;;;;;;5090954;28;20048;-64
2023/07/18 02:34:19;;;;;;;0.32;0.32;;;12.80;99.90;;;;;;5090855;28;20044;-63
2023/07/18 02:36:45;;;;;;;0.30;0.30;;;12.80;99.90;;;;;;5090812;28;20502;-64
2023/07/18 02:39:11;;;;;;;0.47;0.47;;;12.60;99.90;;;;;;5091078;28;20404;-64
2023/07/18 02:41:37;;;;;;;0.52;0.52;;;12.80;99.90;;;;;;5094800;28;20127;-65
2023/07/18 02:44:04;;;;;;;0.50;0.50;;;12.90;99.90;;;;;;5093509;28;20048;-64
2023/07/18 02:46:30;;;;;;;1.08;0.68;;;12.70;99.90;;;;;;5094695;28;20044;-63
2023/07/18 02:48:56;;;;;;;0.43;0.43;;;12.60;99.90;;;;;;5094429;28;20478;-64
2023/07/18 02:51:22;;;;;;;0.30;0.30;;;12.80;99.90;;;;;;5093326;28;20060;-64
2023/07/18 02:53:50;;;;;;;0.40;0.40;;;12.90;99.90;;;;;;5094448;28;20043;-64
2023/07/18 02:56:16;;;;;;;0.55;0.55;;;12.70;99.90;;;;;;5094186;28;20058;-64
2023/07/18 02:58:42;;;;;;;0.50;0.50;;;12.70;99.90;;;;;;5094538;28;20142;-64
2023/07/18 03:01:08;;;;;;;0.38;0.38;;;12.90;99.90;;;;;;5094430;28;20055;-65
2023/07/18 03:03:40;;;;;;;0.68;0.68;;;12.50;99.90;;;;;;5092909;28;20056;-64
2023/07/18 03:06:07;;;;;;;0.30;0.30;;;12.70;99.90;;;;;;5094213;28;20101;-64
2023/07/18 03:08:33;;;;;;;1.23;1.17;;;12.70;99.90;;;;;;5094077;28;20052;-65
2023/07/18 03:11:00;;;;;;;;;;;12.80;99.90;;;;;;5094464;28;20056;-64
2023/07/18 03:13:27;;;;;;;0.60;0.57;;;13.00;99.90;;;;;;5094161;28;19947;-64
2023/07/18 03:15:54;;;;;;;0.22;0.22;;;13.10;99.90;;;;;;5093812;28;20553;-64
2023/07/18 03:18:21;;;;;;;2.08;0.73;;;12.60;99.90;;;;;;5093874;28;20052;-64
2023/07/18 03:20:46;;;;;;;;;;;12.60;99.90;;;;;;5094325;28;20044;-63
2023/07/18 03:23:12;;;;;;;0.20;0.20;;;12.70;99.90;;;;;;5093718;28;19928;-64
2023/07/18 03:25:38;;;;;;;0.22;0.22;;;12.90;99.90;;;;;;5092684;28;20126;-64
2023/07/18 03:28:03;;;;;;;0.38;0.38;;;12.70;99.90;;;;;;5093625;28;20042;-63
2023/07/18 03:30:29;;;;;;;0.50;0.50;;;14.50;99.90;;;;;;5093855;28;20101;-63
2023/07/18 03:32:55;;;;;;;0.65;0.65;;;12.70;99.90;;;;;;5093762;28;20484;-63
2023/07/18 03:35:21;;;;;;;0.60;0.60;;;12.40;99.90;;;;;;5093669;28;20084;-63
2023/07/18 03:37:47;;;;;;;0.20;0.20;;;12.40;99.90;;;;;;5093590;28;20131;-63
2023/07/18 03:40:16;;;;;;;0.55;0.55;;;12.50;99.90;;;;;;5093695;28;20131;-63
2023/07/18 03:42:42;;;;;;;0.40;0.40;;;12.60;99.90;;;;;;5093520;28;20087;-63
2023/07/18 03:45:10;;;;;;;0.20;0.20;;;12.70;99.90;;;;;;5093540;28;20040;-63
2023/07/18 03:47:37;;;;;;;0.60;0.60;;;13.20;99.90;;;;;;5093446;28;20056;-63
2023/07/18 03:50:03;;;;;;;0.30;0.30;;;12.90;99.90;;;;;;5093340;28;20056;-64
2023/07/18 03:52:29;;;;;;;;;;;12.70;99.90;;;;;;5093099;28;20042;-63
2023/07/18 03:54:54;;;;;;;0.30;0.30;;;12.50;99.90;;;;;;5093381;28;20279;-63
2023/07/18 03:57:20;;;;;;;0.30;0.30;;;12.60;99.90;;;;;;5093287;28;20044;-62
2023/07/18 03:59:46;;;;;;;0.30;0.30;;;12.50;99.90;;;;;;5093160;28;20591;-66
2023/07/18 04:02:17;;;;;;;0.82;0.40;;;12.80;99.90;;;;;;5084318;28;20044;-63
2023/07/18 04:04:42;;;;;;;0.22;0.22;;;12.80;99.90;;;;;;5072624;28;20108;-65
2023/07/18 04:07:08;;;;;;;0.32;0.32;;;12.90;99.90;;;;;;5072969;28;20472;-63
2023/07/18 04:09:34;;;;;;;0.20;0.20;;;13.10;99.90;;;;;;5073130;28;20045;-63
2023/07/18 04:12:00;;;;;;;0.28;0.28;;;12.90;99.90;;;;;;5072903;28;20036;-63
2023/07/18 04:14:26;;;;;;;0.30;0.30;;;12.90;99.90;;;;;;5071498;28;20051;-63
2023/07/18 04:16:52;;;;;;;0.20;0.20;;;13.00;99.90;;;;;;5072737;28;20048;-67
2023/07/18 04:19:18;;;;;;;0.38;0.38;;;13.20;99.90;;;;;;5072610;28;20079;-65
2023/07/18 04:21:44;;;;;;;0.30;0.30;;;13.30;99.90;;;;;;5072611;28;20098;-67
2023/07/18 04:24:10;;;;;;;0.20;0.20;;;13.00;99.90;;;;;;5072770;28;20435;-64
2023/07/18 04:26:36;;;;;;;;;;;13.20;99.90;;;;;;5072905;28;20437;-63
2023/07/18 04:29:06;;;;;;;0.30;0.30;;;13.30;99.90;;;;;;5071263;28;19977;-63
2023/07/18 04:31:32;;;;;;;0.20;0.20;;;13.10;99.90;;;;;;5072535;28;20080;-63
2023/07/18 04:33:59;;;;;;;1.65;1.60;;;13.20;99.90;;;;;;5077440;28;20178;-63
2023/07/18 04:36:25;;;;;;;0.25;0.25;;;13.10;99.90;;;;;;5092647;28;20403;-63
2023/07/18 04:38:51;;;;;;;;;;;13.20;99.90;;;;;;5093173;28;20400;-63
2023/07/18 04:41:16;;;;;;;0.17;0.17;;;13.20;99.90;;;;;;5092583;28;19920;-63
2023/07/18 04:43:42;;;;;;;0.20;0.20;;;13.50;99.90;;;;;;5092397;28;20506;-63
2023/07/18 04:46:10;;;;;;;0.32;0.32;;;13.30;99.90;;;;;;5092362;28;20804;-63
2023/07/18 04:48:36;;;;;;;0.30;0.30;;;13.70;99.90;;;;;;5092353;28;20154;-63
2023/07/18 04:51:03;;;;;;;0.40;0.40;;;13.50;99.90;;;;;;5090818;28;20055;-63
2023/07/18 04:53:29;;;;;;;;;;;13.60;99.90;;;;;;5092731;28;20044;-63
2023/07/18 04:55:55;;;;;;;0.20;0.20;;;13.20;99.90;;;;;;5092114;28;20382;-63
2023/07/18 04:58:24;;;;;;;0.65;0.32;;;13.70;99.90;;;;;;5092129;28;20048;-63
2023/07/18 05:00:51;;;;;;;0.38;0.38;;;13.40;99.90;;;;;;5092031;28;20044;-63
2023/07/18 05:03:16;;;;;;;0.25;0.25;;;13.90;99.90;;;;;;5082493;28;20056;-63
2023/07/18 05:05:43;;;;;;;0.52;0.50;;;13.40;99.90;;;;;;5086293;28;20097;-63
2023/07/18 05:08:09;;;;;;;0.30;0.30;;;14.00;99.90;;;;;;5092026;28;20066;-64
2023/07/18 05:10:34;;;;;;;0.38;0.35;;;14.30;99.90;;;;;;5092112;28;20119;-63
2023/07/18 05:13:00;;;;;;;0.43;0.43;;;14.10;99.90;;;;;;5091951;28;20399;-64
2023/07/18 05:15:26;;;;;;;0.32;0.32;;;14.40;99.90;;;;;;5091795;28;20079;-63
2023/07/18 05:17:51;;;;;;;;;;;14.20;99.90;;;;;;5092147;28;20101;-64
2023/07/18 05:20:18;;;;;;;0.85;0.57;;;14.60;99.90;;;;;;5091569;28;20023;-63
2023/07/18 05:22:44;;;;;;;0.38;0.38;;;14.50;99.90;;;;;;5091665;28;20511;-63
2023/07/18 05:25:11;;;;;;;;;;;14.70;99.90;;;;;;5092188;28;20047;-63
2023/07/18 05:27:39;;;;;;;6.38;0.77;;;14.70;99.90;;;;;;5091605;28;19920;-64
2023/07/18 05:30:05;;;;;;;0.20;0.20;;;14.80;99.90;;;;;;5091573;28;20118;-63
2023/07/18 05:32:31;;;;;;;0.28;0.28;;;14.90;99.90;;;;;;5090043;28;20430;-65
2023/07/18 05:35:00;;;;;;;;;;;15.20;99.90;;;;;;5089945;28;20063;-63
2023/07/18 05:37:26;;;;;;;0.30;0.30;;;15.70;99.90;;;;;;5091266;28;19924;-62
2023/07/18 05:39:52;;;;;;;0.20;0.20;;;15.00;99.90;;;;;;5091315;28;20415;-63
2023/07/18 05:42:18;;;;;;;3.42;0.35;;;15.10;99.90;;;;;;5091180;28;20048;-64
2023/07/18 05:44:44;;;;;;;0.20;0.20;;;15.40;99.90;;;;;;5091150;28;20054;-65
2023/07/18 05:47:10;;;;;;;;;;;16.00;99.90;;;;;;5091414;28;20047;-63
2023/07/18 05:49:35;;;;;;;0.30;0.30;;;15.50;99.90;;;;;;5086791;28;19935;-62
2023/07/18 05:52:01;;;;;;;;;;;14.20;99.90;;;;;;5090282;28;20399;-63
2023/07/18 05:54:29;;;;;;;0.43;0.30;;;15.80;99.90;;;;;;5091354;28;19928;-63
2023/07/18 05:56:54;;;;;;;0.40;0.40;;;15.40;99.90;;;;;;5091404;28;20055;-64
2023/07/18 05:59:20;;;;;;;0.45;0.45;;;15.50;99.90;;;;;;5089836;28;20048;-65
2023/07/18 06:01:46;;;;;;;;;;;15.50;99.90;;;;;;5091003;28;20480;-62
2023/07/18 06:04:15;;;;;;;1.77;0.32;;;15.70;99.90;;;;;;5090218;28;19920;-62
2023/07/18 06:06:43;;;;;;;0.55;0.43;;;15.90;99.90;;;;;;5087325;28;20086;-62
2023/07/18 06:09:09;;;;;;;0.10;0.10;;;15.60;99.90;;;;;;5087411;28;20581;-63
2023/07/18 06:11:35;;;;;;;0.20;0.20;;;15.80;99.90;;;;;;5090692;28;20483;-64
2023/07/18 06:14:00;;;;;;;;;;;16.40;99.90;;;;;;5089417;28;20055;-62
2023/07/18 06:16:27;;;;;;;0.98;0.30;;;16.30;99.90;;;;;;5083063;28;19927;-62
2023/07/18 06:18:53;;;;;;;0.30;0.30;;;16.70;99.90;;;;;;5090353;28;20123;-62
2023/07/18 06:21:19;;;;;;;0.52;0.52;;;16.40;99.90;;;;;;5090554;28;20047;-63
2023/07/18 06:23:44;;;;;;;;;;;16.40;99.90;;;;;;5075597;28;20055;-62
2023/07/18 06:26:10;;;;;;;0.40;0.40;;;16.40;99.90;;;;;;5103233;28;20061;-62
2023/07/18 06:28:36;;;;;;;;;;;16.50;99.90;;;;;;5069752;28;20055;-63
2023/07/18 06:31:02;;;;;;;0.20;0.20;;;16.30;99.90;;;;;;5070529;28;20020;-62
2023/07/18 06:33:29;;;;;;;3.40;0.63;;;16.30;99.90;;;;;;5077913;28;20411;-62
2023/07/18 06:35:56;;;;;;;3.03;1.27;;;16.20;99.90;;;;;;5089660;28;20055;-63
2023/07/18 06:38:22;;;;;;;0.30;0.30;;;16.60;99.90;;;;;;5089365;28;20056;-63
2023/07/18 06:40:48;;;;;;;;;;;16.70;99.90;;;;;;5091003;28;20080;-63
2023/07/18 06:43:14;;;;;;;0.20;0.20;;;16.40;99.90;;;;;;5090465;28;20400;-63
2023/07/18 06:45:44;;;;;;;0.28;0.28;;;16.40;99.90;;;;;;5088264;28;20052;-63
2023/07/18 06:48:10;;;;;;;3.78;1.00;;;17.00;99.90;;;;;;5088260;28;20083;-63
2023/07/18 06:50:36;;;;;;;0.22;0.22;;;17.00;99.90;;;;;;5090437;28;20088;-63
2023/07/18 06:53:02;;;;;;;;;;;16.80;99.90;;;;;;5089578;28;20052;-63
2023/07/18 06:55:27;;;;;;;0.30;0.30;;;16.80;99.90;;;;;;5090427;28;19935;-64
2023/07/18 06:57:53;;;;;;;0.90;0.90;;;17.20;99.90;;;;;;5090404;28;20048;-63
2023/07/18 07:00:20;;;;;;;;;;;17.10;99.90;;;;;;5090736;28;20044;-63
2023/07/18 07:02:46;;;;;;;0.13;0.13;;;17.00;99.90;;;;;;5078337;28;20158;-64
2023/07/18 07:05:12;;;;;;;;;;;17.70;99.90;;;;;;5087674;28;20465;-63
2023/07/18 07:07:37;;;;;;;0.17;0.17;;;17.40;99.90;;;;;;5086195;28;20019;-63
2023/07/18 07:10:03;;;;;;;0.17;0.17;;;17.20;99.90;;;;;;5083692;28;20514;-63
2023/07/18 07:12:32;;;;;;;;;;;17.70;99.90;;;;;;5072502;28;20068;-63
2023/07/18 07:14:58;;;;;;;1.50;0.55;;;17.20;99.90;;;;;;5089236;28;20317;-63
2023/07/18 07:17:23;;;;;;;;;;;17.40;99.90;;;;;;5088678;28;20123;-67
2023/07/18 07:19:49;;;;;;;2.75;1.38;;;17.70;99.90;;;;;;5089187;28;19987;-63
2023/07/18 07:22:15;;;;;;;0.13;0.13;;;17.80;99.90;;;;;;5083759;28;20044;-65
2023/07/18 07:24:41;;;;;;;0.38;0.38;;;18.10;99.90;;;;;;5081044;28;20040;-63
2023/07/18 07:27:07;;;;;;;0.30;0.30;;;18.10;99.90;;;;;;5090858;28;20055;-62
2023/07/18 07:29:33;;;;;;;0.20;0.20;;;18.40;99.90;;;;;;5092673;28;20048;-64
2023/07/18 07:31:58;;;;;;;0.85;0.82;;;18.50;99.90;;;;;;5091857;28;20048;-63
2023/07/18 07:34:24;;;;;;;;;;;18.60;99.90;;;;;;5087344;28;20044;-63
2023/07/18 07:36:49;;;;;;;0.63;0.40;;;18.50;99.90;;;;;;5074114;28;20787;-63
2023/07/18 07:39:15;;;;;;;0.50;0.30;;;18.90;99.90;;;;;;5086330;28;20079;-65
2023/07/18 07:41:41;;;;;;;0.10;0.10;;;19.10;99.90;;;;;;5092717;28;20101;-63
2023/07/18 07:44:07;;;;;;;0.50;0.43;;;19.30;99.90;;;;;;5092668;28;20044;-62
2023/07/18 07:46:33;;;;;;;0.55;0.55;;;19.00;99.90;;;;;;5075190;28;20059;-63
2023/07/18 07:48:59;;;;;;;0.30;0.30;;;19.50;99.90;;;;;;5090797;28;20044;-63
2023/07/18 07:51:24;;;;;;;0.88;0.38;;;19.80;99.90;;;;;;5081677;28;20450;-63
2023/07/18 07:53:50;;;;;;;0.10;0.10;;;19.60;99.90;;;;;;5073005;28;20048;-63
2023/07/18 07:56:16;;;;;;;0.10;0.10;;;19.80;99.90;;;;;;5074100;28;20048;-64
2023/07/18 07:58:41;;;;;;;0.10;0.10;;;19.60;99.90;;;;;;5093040;28;20247;-64
2023/07/18 08:01:10;;;;;;;0.10;0.10;;;19.70;99.90;;;;;;5093238;28;20051;-64
2023/07/18 08:03:36;;;;;;;0.17;0.17;;;20.10;99.90;;;;;;5093003;28;20079;-63
2023/07/18 08:06:02;;;;;;;0.30;0.30;;;19.90;99.90;;;;;;5092826;28;20063;-64
2023/07/18 08:08:27;;;;;;;0.10;0.10;;;19.60;99.90;;;;;;5075365;28;20071;-63
2023/07/18 08:10:53;;;;;;;0.40;0.30;;;19.20;99.90;;;;;;5072591;28;20128;-63
2023/07/18 08:13:19;;;;;;;0.20;0.20;;;19.40;99.90;;;;;;5072567;28;20036;-63
2023/07/18 08:15:45;;;;;;;0.40;0.40;;;19.10;99.90;;;;;;5072789;28;20403;-63
2023/07/18 08:18:10;;;;;;;1.10;0.55;;;19.10;99.90;;;;;;5072674;28;20238;-64
2023/07/18 08:20:36;;;;;;;0.63;0.63;;;19.00;99.90;;;;;;5105398;28;20059;-64
2023/07/18 08:23:03;;;;;;;0.10;0.10;;;19.20;99.90;;;;;;5054705;28;20076;-64
2023/07/18 08:25:29;;;;;;;0.20;0.20;;;19.40;99.90;;;;;;5071504;28;20064;-64
2023/07/18 08:27:54;;;;;;;0.60;0.60;;;19.10;99.90;;;;;;5072493;28;20043;-64
2023/07/18 08:30:21;;;;;;;0.20;0.20;;;18.80;99.90;;;;;;5075845;28;20105;-64
2023/07/18 08:32:46;;;;;;;0.30;0.30;;;18.90;99.90;;;;;;5089498;28;20051;-64
2023/07/18 08:35:12;;;;;;;0.75;0.43;;;18.80;99.90;;;;;;5091576;28;20109;-64
2023/07/18 08:37:39;;;;;;;0.10;0.10;;;18.70;99.90;;;;;;5091604;28;20105;-64
2023/07/18 08:40:06;;;;;;;0.25;0.20;;;18.50;99.90;;;;;;5091620;28;20044;-63
2023/07/18 08:42:33;;;;;;;0.68;0.20;;;18.50;99.90;;;;;;5091361;28;20056;-63
2023/07/18 08:45:00;;;;;;;0.40;0.20;;;18.30;99.90;;;;;;5089929;28;20391;-64
2023/07/18 08:47:27;;;;;;;0.00;0.00;;;18.50;99.90;;;;;;5091651;28;20044;-63
2023/07/18 08:49:53;;;;;;;0.30;0.30;;;19.20;99.90;;;;;;5091539;28;20442;-63
2023/07/18 08:52:19;;;;;;;0.10;0.10;;;19.10;99.90;;;;;;5091221;28;20052;-64
2023/07/18 08:54:45;;;;;;;0.25;0.20;;;19.10;99.90;;;;;;5090333;28;20089;-64
2023/07/18 08:57:11;;;;;;;0.20;0.20;;;19.10;99.90;;;;;;5090466;28;20119;-64
2023/07/18 08:59:39;;;;;;;0.55;0.10;;;19.10;99.90;;;;;;5091966;28;20096;-64
2023/07/18 09:02:05;;;;;;;0.20;0.20;;;18.90;99.90;;;;;;5091884;28;20113;-64
2023/07/18 09:04:31;;;;;;;0.10;0.10;;;19.10;99.90;;;;;;5091776;28;20106;-63
2023/07/18 09:07:02;;;;;;;0.20;0.20;;;20.00;99.90;;;;;;5091486;28;20051;-64
2023/07/18 09:09:28;;;;;;;0.40;0.40;;;19.20;99.90;;;;;;5091954;28;20138;-63
2023/07/18 09:11:57;;;;;;;0.52;0.28;;;19.10;99.90;;;;;;5092045;28;20079;-63
2023/07/18 09:14:28;;;;;;;0.10;0.10;;;19.50;99.90;;;;;;5092242;28;20084;-64
2023/07/18 09:16:55;;;;;;;0.20;0.20;;;19.50;99.90;;;;;;5092059;28;20079;-64
2023/07/18 09:19:40;;;;;;;0.30;0.30;;;20.00;99.90;;;;;;5090671;28;20060;-64
2023/07/18 09:22:09;;;;;;;0.20;0.20;;;19.50;99.90;;;;;;5090417;28;20385;-63
2023/07/18 09:24:35;;;;;;;0.13;0.13;;;19.50;99.90;;;;;;5091919;28;20055;-63
2023/07/18 09:27:03;;;;;;;0.10;0.10;;;19.40;99.90;;;;;;5091898;28;20048;-64
2023/07/18 09:29:29;;;;;;;0.40;0.20;;;19.20;99.90;;;;;;5073731;28;20051;-64
2023/07/18 09:31:55;;;;;;;0.10;0.10;;;19.20;99.90;;;;;;5091847;28;20048;-63
2023/07/18 09:34:21;;;;;;;0.30;0.30;;;19.30;99.90;;;;;;5091758;28;20483;-63
2023/07/18 09:37:01;;;;;;;0.20;0.20;;;19.40;99.90;;;;;;5090242;28;20047;-65
2023/07/18 09:39:28;;;;;;;0.20;0.20;;;19.60;99.90;;;;;;5091793;28;20048;-63
2023/07/18 09:41:55;;;;;;;0.80;0.47;;;19.60;99.90;;;;;;5091970;28;20044;-63
2023/07/18 09:44:25;;;;;;;1.40;0.45;;;19.60;99.90;;;;;;5091722;28;20046;-63
2023/07/18 09:46:51;;;;;;;0.00;0.00;;;19.80;99.90;;;;;;5090416;28;20415;-65
2023/07/18 09:49:18;;;;;;;0.00;0.00;;;20.00;99.90;;;;;;5090562;28;20047;-64
2023/07/18 09:51:51;;;;;;;0.00;0.00;;;20.10;99.90;;;;;;5091148;28;20122;-64
2023/07/18 09:54:19;;;;;;;0.10;0.10;;;20.00;99.90;;;;;;5091349;28;20044;-64
2023/07/18 09:56:45;;;;;;;0.10;0.10;;;20.00;99.90;;;;;;5091352;28;20075;-64
2023/07/18 09:59:11;;;;;;;0.10;0.10;;;20.00;99.90;;;;;;5091275;28;20044;-64
2023/07/18 10:01:37;;;;;;;0.13;0.13;;;19.70;99.90;;;;;;5089669;28;20048;-64
2023/07/18 10:04:04;;;;;;;0.10;0.10;;;19.70;99.90;;;;;;5089396;28;20503;-65
2023/07/18 10:06:32;;;;;;;0.10;0.10;;;19.90;99.90;;;;;;5091187;28;20063;-64
2023/07/18 10:08:59;;;;;;;0.17;0.17;;;19.40;99.90;;;;;;5091127;28;20186;-64
2023/07/18 10:11:24;;;;;;;0.32;0.30;;;19.50;99.90;;;;;;5091238;28;20143;-64
2023/07/18 10:14:05;;;;;;;0.10;0.10;;;19.70;99.90;;;;;;5091297;28;20426;-64
2023/07/18 10:16:34;;;;;;;0.20;0.20;;;19.10;99.90;;;;;;5091368;28;20127;-64
2023/07/18 10:19:17;;;;;;;0.10;0.10;;;19.40;99.90;;;;;;5091623;28;20123;-64
2023/07/18 10:21:45;;;;;;;0.30;0.30;;;19.00;99.90;;;;;;5091864;28;20099;-64
2023/07/18 10:24:20;;;;;;;0.00;0.00;;;19.10;99.90;;;;;;5091416;28;20103;-64
2023/07/18 10:27:08;;;;;;;0.10;0.10;;;18.90;99.90;;;;;;5091210;28;20048;-64
2023/07/18 10:29:38;;;;;;;0.10;0.10;;;19.00;99.90;;;;;;5091488;28;20079;-64
2023/07/18 10:32:06;;;;;;;0.10;0.10;;;18.80;99.90;;;;;;5091333;28;20127;-64
2023/07/18 10:34:39;;;;;;;0.43;0.20;;;18.90;99.90;;;;;;5090171;28;20517;-64
2023/07/18 10:37:07;;;;;;;0.17;0.10;;;19.00;99.90;;;;;;5091042;28;20047;-64
2023/07/18 10:39:38;;;;;;;2.35;0.35;;;18.70;99.90;;;;;;5091412;28;20112;-64
2023/07/18 10:42:08;;;;;;;0.10;0.10;;;18.40;99.90;;;;;;5091329;28;20055;-64
2023/07/18 10:44:37;;;;;;;0.10;0.10;;;18.50;99.90;;;;;;5091128;28;20056;-64
2023/07/18 10:47:12;;;;;;;0.20;0.20;;;18.50;99.90;;;;;;5091126;28;20048;-65
2023/07/18 10:49:38;;;;;;;0.10;0.10;;;18.60;99.90;;;;;;5089695;28;20408;-64
2023/07/18 10:52:04;;;;;;;0.00;0.00;;;18.70;99.90;;;;;;5090910;28;20123;-65
2023/07/18 10:54:30;;;;;;;0.10;0.10;;;19.00;99.90;;;;;;5091103;28;20036;-65
2023/07/18 10:56:56;;;;;;;0.10;0.10;;;18.90;99.90;;;;;;5091263;28;20070;-64
2023/07/18 10:59:22;;;;;;;0.93;0.30;;;18.80;99.90;;;;;;5089804;28;20484;-66
2023/07/18 11:01:48;;;;;;;0.10;0.10;;;19.00;99.90;;;;;;5092114;28;20404;-64
2023/07/18 11:04:13;;;;;;;0.10;0.10;;;18.90;99.90;;;;;;5094360;28;20112;-64
2023/07/18 11:06:49;;;;;;;0.22;0.22;;;19.40;99.90;;;;;;5094671;28;20048;-64
2023/07/18 11:09:16;;;;;;;0.90;0.20;;;19.30;99.90;;;;;;5094837;28;20056;-65
2023/07/18 11:11:41;;;;;;;0.13;0.13;;;19.10;99.90;;;;;;5094771;28;20054;-64
2023/07/18 11:14:07;;;;;;;0.25;0.25;;;19.20;99.90;;;;;;5094730;28;20044;-64
2023/07/18 11:16:33;;;;;;;0.20;0.15;;;19.30;99.90;;;;;;5094601;28;20134;-65
2023/07/18 11:19:02;;;;;;;0.20;0.20;;;18.90;99.90;;;;;;5094473;28;20197;-65
2023/07/18 11:21:28;;;;;;;0.10;0.10;;;19.00;99.90;;;;;;5094663;28;20048;-66
2023/07/18 11:23:54;;;;;;;0.00;0.00;;;19.20;99.90;;;;;;5094515;28;20044;-64
2023/07/18 11:26:20;;;;;;;0.40;0.40;;;19.00;99.90;;;;;;5094573;28;20075;-64
2023/07/18 11:28:50;;;;;;;0.32;0.10;;;18.90;99.90;;;;;;5094526;28;20055;-64
2023/07/18 11:31:26;;;;;;;0.15;0.15;;;19.20;99.90;;;;;;5094286;28;20079;-64
2023/07/18 11:33:57;;;;;;;0.00;0.00;;;19.40;99.90;;;;;;5094432;28;20052;-64
2023/07/18 11:36:27;;;;;;;0.10;0.10;;;19.20;99.90;;;;;;5094269;28;20052;-64
2023/07/18 11:38:53;;;;;;;0.10;0.10;;;19.20;99.90;;;;;;5094290;28;20471;-64
2023/07/18 11:41:35;;;;;;;0.57;0.25;;;19.20;99.90;;;;;;5092786;28;20148;-65
2023/07/18 11:44:05;;;;;;;0.00;0.00;;;19.10;99.90;;;;;;5093851;28;20476;-63
2023/07/18 11:46:41;;;;;;;0.10;0.10;;;19.30;99.90;;;;;;5094081;28;20047;-63
2023/07/18 11:49:09;;;;;;;0.00;0.00;;;19.20;99.90;;;;;;5094076;28;20510;-64
2023/07/18 11:51:35;;;;;;;0.20;0.20;;;19.10;99.90;;;;;;5093977;28;20047;-64
2023/07/18 11:54:02;;;;;;;0.05;0.05;;;18.90;99.90;;;;;;5089383;28;20044;-63
2023/07/18 11:56:31;;;;;;;0.20;0.20;;;18.90;99.90;;;;;;5093231;28;20554;-64
2023/07/18 11:58:57;;;;;;;0.08;0.08;;;19.00;99.90;;;;;;5093849;28;20044;-63
2023/07/18 12:01:23;;;;;;;0.10;0.10;;;18.70;99.90;;;;;;5093829;28;20377;-64
2023/07/18 12:03:52;;;;;;;0.20;0.20;;;18.50;99.90;;;;;;5093281;28;20105;-64
2023/07/18 12:06:19;;;;;;;0.00;0.00;;;18.50;99.90;;;;;;5126535;27;20047;-64
2023/07/18 12:08:45;;;;;;;0.10;0.10;;;18.70;99.90;;;;;;5093602;28;20052;-63
2023/07/18 12:11:11;;;;;;;0.00;0.00;;;18.90;99.90;;;;;;5093512;28;20052;-64
2023/07/18 12:13:38;;;;;;;0.00;0.00;;;19.00;99.90;;;;;;5093308;28;20039;-64
2023/07/18 12:16:04;;;;;;;0.20;0.20;;;18.40;99.90;;;;;;5093773;28;20048;-67
2023/07/18 12:18:30;;;;;;;0.00;0.00;;;18.60;99.90;;;;;;5093758;28;20389;-64
2023/07/18 12:20:56;;;;;;;0.10;0.10;;;18.70;99.90;;;;;;5093502;28;20048;-64
2023/07/18 12:23:23;;;;;;;0.10;0.10;;;18.70;99.90;;;;;;5093201;28;20047;-64
2023/07/18 12:25:49;;;;;;;0.00;0.00;;;18.80;99.90;;;;;;5092859;28;20044;-65
2023/07/18 12:28:15;;;;;;;0.00;0.00;;;18.60;99.90;;;;;;5093019;28;20047;-64
2023/07/18 12:30:41;;;;;;;0.10;0.10;;;18.70;99.90;;;;;;5092848;28;20105;-64
2023/07/18 12:33:08;;;;;;;0.47;0.47;;;18.50;99.90;;;;;;5092822;28;20047;-65
2023/07/18 12:35:33;;;;;;;0.20;0.20;;;18.80;99.90;;;;;;5091359;28;20048;-64
2023/07/18 12:37:59;;;;;;;0.05;0.05;;;18.90;99.90;;;;;;5092644;28;20051;-66
2023/07/18 12:40:25;;;;;;;0.10;0.10;;;19.10;99.90;;;;;;5092622;28;20135;-65
2023/07/18 12:42:51;;;;;;;0.10;0.10;;;18.90;99.90;;;;;;5092604;28;20079;-64
2023/07/18 12:45:18;;;;;;;0.10;0.10;;;19.10;99.90;;;;;;5092573;28;20503;-64
2023/07/18 12:47:44;;;;;;;0.05;0.05;;;19.00;99.90;;;;;;5092590;28;20055;-64
2023/07/18 12:50:11;;;;;;;0.13;0.13;;;19.00;99.90;;;;;;5092425;28;20419;-64
2023/07/18 12:52:38;;;;;;;0.10;0.10;;;19.20;99.90;;;;;;5092463;28;20086;-64
2023/07/18 12:55:05;;;;;;;0.25;0.25;;;19.30;99.90;;;;;;5092549;28;20407;-65